Time;durP1;ratioP1;P1;durP2;ratioP2;P2;SDS_P1;SDS_P2;PMS_P1;PMS_P2;Temp;Humidity;BMP_temperature;BMP_pressure;BME280_temperature;BME280_humidity;BME280_pressure;Samples;Min_cycle;Max_cycle;Signal;HPM_P1;HPM_P2
2022/10/08 00:01:13;;;;;;;9.15;2.85;;;13.60;99.90;;;;;;5128189;27;20481;-73
2022/10/08 00:03:42;;;;;;;8.50;2.40;;;13.50;99.90;;;;;;5121594;27;20420;-73
2022/10/08 00:06:20;;;;;;;9.93;2.88;;;13.50;99.90;;;;;;5110490;28;20412;-72
2022/10/08 00:08:55;;;;;;;10.48;2.80;;;13.30;99.90;;;;;;5110528;28;20914;-73
2022/10/08 00:11:27;;;;;;;8.75;3.10;;;13.30;99.90;;;;;;5101199;28;20492;-72
2022/10/08 00:13:54;;;;;;;10.20;3.38;;;13.20;99.90;;;;;;5107532;28;20495;-73
2022/10/08 00:16:22;;;;;;;9.48;2.90;;;13.20;99.90;;;;;;5109597;28;20396;-74
2022/10/08 00:18:50;;;;;;;12.07;3.60;;;13.20;99.90;;;;;;5109792;28;20422;-74
2022/10/08 00:21:26;;;;;;;8.88;3.60;;;13.10;99.90;;;;;;5110100;28;20402;-74
2022/10/08 00:23:53;;;;;;;13.40;3.80;;;13.10;99.90;;;;;;5109751;28;20409;-73
2022/10/08 00:26:22;;;;;;;13.43;3.63;;;13.00;99.90;;;;;;5107596;28;20415;-73
2022/10/08 00:28:49;;;;;;;9.38;3.50;;;13.00;99.90;;;;;;5108316;28;20465;-74
2022/10/08 00:31:19;;;;;;;10.23;3.87;;;13.00;99.90;;;;;;5114189;27;20395;-73
2022/10/08 00:33:53;;;;;;;9.87;4.00;;;13.00;99.90;;;;;;5125529;27;20405;-72
2022/10/08 00:36:21;;;;;;;14.10;3.88;;;12.90;99.90;;;;;;5115983;27;20419;-73
2022/10/08 00:38:48;;;;;;;11.90;3.90;;;12.90;99.90;;;;;;5121334;27;20914;-73
2022/10/08 00:41:25;;;;;;;12.27;3.63;;;12.90;99.90;;;;;;5125410;27;20434;-73
2022/10/08 00:43:53;;;;;;;8.32;3.30;;;12.90;99.90;;;;;;5119205;27;20405;-74
2022/10/08 00:46:35;;;;;;;10.32;3.78;;;12.90;99.90;;;;;;5109628;27;20404;-73
2022/10/08 00:49:10;;;;;;;11.25;3.83;;;12.90;99.90;;;;;;5118169;27;20413;-73
2022/10/08 00:51:40;;;;;;;9.25;3.30;;;12.90;99.90;;;;;;5129177;27;20987;-73
2022/10/08 00:54:06;;;;;;;12.30;3.17;;;12.90;99.90;;;;;;5128691;27;20919;-73
2022/10/08 00:56:35;;;;;;;9.40;2.83;;;12.90;99.90;;;;;;5124625;27;21052;-73
2022/10/08 00:59:01;;;;;;;9.82;2.97;;;12.90;99.90;;;;;;5120339;27;20403;-73
2022/10/08 01:01:28;;;;;;;9.75;2.88;;;12.90;99.90;;;;;;5117481;27;20404;-73
2022/10/08 01:03:55;;;;;;;10.13;3.00;;;12.90;99.90;;;;;;5108678;28;20447;-74
2022/10/08 01:06:29;;;;;;;8.02;2.45;;;12.90;99.90;;;;;;5122604;27;20392;-74
2022/10/08 01:09:18;;;;;;;12.20;2.97;;;12.90;99.90;;;;;;5122635;27;20407;-73
2022/10/08 01:12:04;;;;;;;7.63;2.92;;;12.90;99.90;;;;;;5113227;27;20904;-74
2022/10/08 01:14:55;;;;;;;12.65;3.00;;;12.90;99.90;;;;;;5120441;27;20471;-73
2022/10/08 01:17:48;;;;;;;10.88;2.70;;;12.90;99.90;;;;;;5112622;27;20450;-73
2022/10/08 01:20:28;;;;;;;12.30;3.30;;;12.90;99.90;;;;;;5108858;28;20434;-73
2022/10/08 01:23:15;;;;;;;7.60;2.65;;;12.90;99.90;;;;;;5109182;28;20993;-73
2022/10/08 01:26:17;;;;;;;10.27;2.53;;;12.80;99.90;;;;;;5109228;28;20933;-74
2022/10/08 01:28:48;;;;;;;7.40;2.40;;;12.80;99.90;;;;;;5122006;27;20770;-74
2022/10/08 01:31:28;;;;;;;10.88;2.38;;;12.80;99.90;;;;;;5108743;27;20411;-74
2022/10/08 01:33:59;;;;;;;7.38;2.20;;;12.80;99.90;;;;;;5101657;27;20387;-73
2022/10/08 01:36:27;;;;;;;9.13;2.17;;;12.80;99.90;;;;;;5128666;27;20399;-74
2022/10/08 01:38:59;;;;;;;10.03;2.30;;;12.80;99.90;;;;;;5114365;27;20400;-75
2022/10/08 01:41:28;;;;;;;10.27;2.22;;;12.80;99.90;;;;;;5108354;28;20408;-74
2022/10/08 01:44:06;;;;;;;8.98;2.58;;;12.80;99.90;;;;;;5121379;27;20402;-73
2022/10/08 01:46:36;;;;;;;9.45;2.00;;;12.80;99.90;;;;;;5107953;28;21021;-73
2022/10/08 01:49:07;;;;;;;8.90;2.42;;;12.80;99.90;;;;;;5111419;27;20443;-74
2022/10/08 01:51:38;;;;;;;6.85;1.77;;;12.80;99.90;;;;;;5108354;28;20400;-73
2022/10/08 01:54:08;;;;;;;8.45;2.08;;;12.70;99.90;;;;;;5108411;28;20894;-73
2022/10/08 01:56:38;;;;;;;6.85;1.90;;;12.70;99.90;;;;;;5101799;27;20900;-74
2022/10/08 01:59:13;;;;;;;8.80;2.08;;;12.70;99.90;;;;;;5128572;27;20824;-74
2022/10/08 02:01:57;;;;;;;8.15;1.88;;;12.60;99.90;;;;;;5122345;27;20412;-73
2022/10/08 02:04:32;;;;;;;7.28;1.40;;;12.60;99.90;;;;;;5121077;27;20412;-74
2022/10/08 02:07:02;;;;;;;9.32;1.77;;;12.60;99.90;;;;;;5116826;27;20409;-74
2022/10/08 02:09:31;;;;;;;9.45;1.75;;;12.50;99.90;;;;;;5111852;27;20416;-73
2022/10/08 02:11:56;;;;;;;5.82;1.50;;;12.50;99.90;;;;;;5108481;28;20415;-74
2022/10/08 02:14:25;;;;;;;7.57;1.33;;;12.40;99.90;;;;;;5108406;28;20413;-74
2022/10/08 02:17:16;;;;;;;6.72;1.83;;;12.40;99.90;;;;;;5108440;28;20404;-74
2022/10/08 02:20:12;;;;;;;6.55;1.40;;;12.30;99.90;;;;;;5101102;28;20408;-73
2022/10/08 02:22:51;;;;;;;7.53;1.58;;;12.30;99.90;;;;;;5097300;28;20417;-74
2022/10/08 02:25:45;;;;;;;7.85;1.45;;;12.20;99.90;;;;;;5108281;28;20770;-74
2022/10/08 02:28:28;;;;;;;6.22;1.20;;;12.20;99.90;;;;;;5108437;28;20427;-74
2022/10/08 02:31:04;;;;;;;7.00;1.73;;;12.10;99.90;;;;;;5107217;28;20910;-73
2022/10/08 02:33:39;;;;;;;7.22;1.45;;;12.10;99.90;;;;;;5107910;28;20400;-74
2022/10/08 02:36:08;;;;;;;5.88;1.38;;;12.00;99.90;;;;;;5113764;28;20428;-75
2022/10/08 02:38:41;;;;;;;8.07;1.50;;;12.00;99.90;;;;;;5119542;28;20467;-73
2022/10/08 02:41:09;;;;;;;7.10;1.70;;;12.00;99.90;;;;;;5121151;28;20458;-74
2022/10/08 02:43:40;;;;;;;8.82;1.80;;;11.90;99.90;;;;;;5118701;28;20981;-74
2022/10/08 02:46:16;;;;;;;8.80;1.48;;;11.90;99.90;;;;;;5113638;28;20458;-74
2022/10/08 02:48:49;;;;;;;7.75;1.80;;;11.80;99.90;;;;;;5109575;28;20446;-74
2022/10/08 02:51:17;;;;;;;7.35;2.03;;;11.80;99.90;;;;;;5106438;28;20483;-74
2022/10/08 02:53:44;;;;;;;8.40;1.63;;;11.80;99.90;;;;;;5106929;28;20498;-74
2022/10/08 02:56:12;;;;;;;7.53;1.67;;;11.80;99.90;;;;;;5127038;27;20441;-73
2022/10/08 02:58:38;;;;;;;10.13;1.80;;;11.70;99.90;;;;;;5127480;27;20454;-74
2022/10/08 03:01:07;;;;;;;7.03;1.67;;;11.70;99.90;;;;;;5106554;27;20808;-74
2022/10/08 03:03:37;;;;;;;7.47;1.50;;;11.70;99.90;;;;;;5107620;28;20828;-74
2022/10/08 03:06:05;;;;;;;7.70;1.50;;;11.70;99.90;;;;;;5107755;28;20439;-73
2022/10/08 03:08:33;;;;;;;7.93;1.42;;;11.70;99.90;;;;;;5107624;28;20400;-74
2022/10/08 03:10:59;;;;;;;7.57;1.52;;;11.70;99.90;;;;;;5119277;27;20386;-74
2022/10/08 03:13:25;;;;;;;7.87;2.00;;;11.70;99.90;;;;;;5119152;28;20754;-74
2022/10/08 03:15:53;;;;;;;8.50;1.85;;;11.60;99.90;;;;;;5137340;27;20476;-73
2022/10/08 03:18:20;;;;;;;6.20;1.75;;;11.60;99.90;;;;;;5119280;28;20472;-73
2022/10/08 03:20:50;;;;;;;6.30;1.30;;;11.60;99.90;;;;;;5128493;27;20748;-73
2022/10/08 03:23:17;;;;;;;6.43;1.67;;;11.60;99.90;;;;;;5118316;27;20434;-73
2022/10/08 03:25:43;;;;;;;7.03;1.65;;;11.50;99.90;;;;;;5117061;27;20405;-73
2022/10/08 03:28:08;;;;;;;6.23;1.47;;;11.50;99.90;;;;;;5120411;27;20775;-73
2022/10/08 03:30:34;;;;;;;7.03;1.90;;;11.50;99.90;;;;;;5108059;28;20449;-73
2022/10/08 03:33:00;;;;;;;5.73;1.40;;;11.50;99.90;;;;;;5106810;28;20416;-73
2022/10/08 03:35:26;;;;;;;6.57;1.60;;;11.50;99.90;;;;;;5117372;27;20502;-73
2022/10/08 03:37:52;;;;;;;8.25;1.33;;;11.50;99.90;;;;;;5130531;27;20790;-73
2022/10/08 03:40:19;;;;;;;8.85;1.50;;;11.50;99.90;;;;;;5111286;28;20396;-73
2022/10/08 03:42:45;;;;;;;6.88;1.38;;;11.40;99.90;;;;;;5111708;27;20396;-74
2022/10/08 03:45:11;;;;;;;8.50;1.73;;;11.40;99.90;;;;;;5123594;27;20399;-73
2022/10/08 03:47:36;;;;;;;8.30;1.60;;;11.30;99.90;;;;;;5110998;28;20384;-73
2022/10/08 03:50:02;;;;;;;8.23;1.50;;;11.30;99.90;;;;;;5110791;27;20949;-73
2022/10/08 03:52:29;;;;;;;5.23;1.53;;;11.30;99.90;;;;;;5111059;27;20906;-73
2022/10/08 03:54:55;;;;;;;7.80;1.80;;;11.30;99.90;;;;;;5111183;27;20432;-73
2022/10/08 03:57:20;;;;;;;4.43;1.30;;;11.30;99.90;;;;;;5110015;27;20400;-73
2022/10/08 03:59:46;;;;;;;6.33;1.50;;;11.30;99.90;;;;;;5109322;27;20415;-73
2022/10/08 04:02:12;;;;;;;6.70;1.60;;;11.20;99.90;;;;;;5110868;27;20458;-74
2022/10/08 04:04:37;;;;;;;6.20;2.10;;;11.30;99.90;;;;;;5110651;28;20400;-73
2022/10/08 04:07:03;;;;;;;6.57;2.00;;;11.20;99.90;;;;;;5109348;27;20408;-73
2022/10/08 04:09:28;;;;;;;7.60;1.43;;;11.20;99.90;;;;;;5096604;28;20408;-73
2022/10/08 04:11:54;;;;;;;9.70;2.22;;;11.10;99.90;;;;;;5110506;28;20426;-73
2022/10/08 04:14:20;;;;;;;8.17;2.60;;;11.10;99.90;;;;;;5109764;28;20782;-73
2022/10/08 04:16:46;;;;;;;8.05;1.77;;;11.10;99.90;;;;;;5110234;28;20408;-73
2022/10/08 04:19:13;;;;;;;7.40;1.80;;;11.10;99.90;;;;;;5130223;27;20542;-73
2022/10/08 04:21:38;;;;;;;6.90;1.75;;;11.10;99.90;;;;;;5130424;27;21039;-73
2022/10/08 04:24:04;;;;;;;8.23;1.60;;;11.10;99.90;;;;;;5129359;27;20482;-73
2022/10/08 04:26:31;;;;;;;6.63;2.10;;;11.10;99.90;;;;;;5129260;27;21443;-73
2022/10/08 04:28:57;;;;;;;11.57;2.00;;;11.10;99.90;;;;;;5111851;27;20480;-73
2022/10/08 04:31:23;;;;;;;7.77;1.80;;;11.10;99.90;;;;;;5116916;27;20492;-73
2022/10/08 04:33:50;;;;;;;8.95;1.90;;;11.10;99.90;;;;;;5110242;27;20743;-73
2022/10/08 04:36:21;;;;;;;7.88;2.22;;;11.10;99.90;;;;;;5110565;27;20420;-73
2022/10/08 04:38:48;;;;;;;7.28;2.00;;;11.10;99.90;;;;;;5097117;28;20766;-73
2022/10/08 04:41:18;;;;;;;9.60;2.25;;;11.10;99.90;;;;;;5109607;27;20392;-73
2022/10/08 04:43:45;;;;;;;8.07;2.00;;;11.10;99.90;;;;;;5109860;28;20415;-74
2022/10/08 04:46:14;;;;;;;8.73;1.90;;;11.10;99.90;;;;;;5109941;27;20750;-73
2022/10/08 04:48:45;;;;;;;9.70;2.47;;;11.10;99.90;;;;;;5108336;27;20404;-73
2022/10/08 04:51:11;;;;;;;10.32;2.42;;;11.10;99.90;;;;;;5110097;28;20904;-73
2022/10/08 04:53:37;;;;;;;9.90;2.28;;;11.00;99.90;;;;;;5109715;28;20388;-73
2022/10/08 04:56:15;;;;;;;10.07;2.15;;;11.10;99.90;;;;;;5109193;27;20939;-73
2022/10/08 04:58:41;;;;;;;8.60;2.40;;;11.00;99.90;;;;;;5109878;27;20917;-74
2022/10/08 05:01:11;;;;;;;11.05;2.40;;;11.00;99.90;;;;;;5109638;27;20399;-73
2022/10/08 05:03:41;;;;;;;11.23;2.22;;;11.00;99.90;;;;;;5109985;27;20396;-73
2022/10/08 05:06:08;;;;;;;11.90;2.57;;;11.00;99.90;;;;;;5109368;27;20400;-73
2022/10/08 05:08:34;;;;;;;8.07;2.13;;;11.00;99.90;;;;;;5109056;28;20884;-73
2022/10/08 05:11:00;;;;;;;12.93;2.50;;;10.90;99.90;;;;;;5108187;27;20851;-73
2022/10/08 05:13:25;;;;;;;11.70;2.25;;;10.90;99.90;;;;;;5109376;28;20396;-74
2022/10/08 05:15:51;;;;;;;8.30;2.20;;;10.90;99.90;;;;;;5116740;27;20432;-73
2022/10/08 05:18:17;;;;;;;11.68;2.40;;;10.90;99.90;;;;;;5108997;28;20412;-73
2022/10/08 05:20:43;;;;;;;10.05;2.90;;;10.90;99.90;;;;;;5115202;27;20473;-73
2022/10/08 05:23:08;;;;;;;12.47;2.27;;;10.90;99.90;;;;;;5119465;27;20399;-73
2022/10/08 05:25:34;;;;;;;11.20;2.58;;;10.80;99.90;;;;;;5109361;28;20451;-73
2022/10/08 05:28:02;;;;;;;10.68;2.60;;;10.80;99.90;;;;;;5108628;27;20408;-73
2022/10/08 05:30:27;;;;;;;10.05;2.22;;;10.80;99.90;;;;;;5115934;27;20398;-73
2022/10/08 05:32:53;;;;;;;11.27;2.43;;;10.80;99.90;;;;;;5117968;27;20406;-73
2022/10/08 05:35:19;;;;;;;10.65;2.17;;;10.80;99.90;;;;;;5112149;27;20579;-73
2022/10/08 05:37:45;;;;;;;11.40;2.40;;;10.80;99.90;;;;;;5117269;27;20404;-73
2022/10/08 05:40:10;;;;;;;11.90;1.77;;;10.80;99.90;;;;;;5108064;27;20905;-73
2022/10/08 05:42:36;;;;;;;11.95;2.00;;;10.80;99.90;;;;;;5107175;27;20414;-73
2022/10/08 05:45:02;;;;;;;12.82;2.33;;;10.70;99.90;;;;;;5108102;28;20411;-73
2022/10/08 05:47:28;;;;;;;8.50;1.63;;;10.70;99.90;;;;;;5106355;28;20400;-74
2022/10/08 05:49:54;;;;;;;12.20;2.00;;;10.70;99.90;;;;;;5107614;28;20396;-74
2022/10/08 05:52:19;;;;;;;12.40;2.50;;;10.70;99.90;;;;;;5111541;27;20391;-73
2022/10/08 05:54:45;;;;;;;10.50;2.20;;;10.70;99.90;;;;;;5128184;27;20474;-73
2022/10/08 05:57:10;;;;;;;12.43;2.25;;;10.70;99.90;;;;;;5126626;27;20398;-73
2022/10/08 05:59:36;;;;;;;10.97;2.17;;;10.70;99.90;;;;;;5128026;27;20420;-73
2022/10/08 06:02:02;;;;;;;9.35;2.50;;;10.70;99.90;;;;;;5113901;27;20391;-73
2022/10/08 06:04:28;;;;;;;11.10;2.13;;;10.70;99.90;;;;;;5116380;27;20431;-73
2022/10/08 06:06:53;;;;;;;9.38;2.08;;;10.70;99.90;;;;;;5110918;27;20472;-73
2022/10/08 06:09:20;;;;;;;11.43;2.10;;;10.60;99.90;;;;;;5127182;27;20502;-73
2022/10/08 06:11:46;;;;;;;14.15;2.17;;;10.70;99.90;;;;;;5114594;27;20402;-73
2022/10/08 06:14:15;;;;;;;12.35;2.40;;;10.70;99.90;;;;;;5128627;27;20443;-73
2022/10/08 06:16:41;;;;;;;10.75;2.55;;;10.70;99.90;;;;;;5127563;27;20402;-73
2022/10/08 06:19:08;;;;;;;10.70;2.35;;;10.70;99.90;;;;;;5128614;27;20754;-73
2022/10/08 06:21:34;;;;;;;11.60;2.20;;;10.60;99.90;;;;;;5114709;27;20394;-74
2022/10/08 06:24:03;;;;;;;12.32;2.17;;;10.70;99.90;;;;;;5117816;27;20400;-73
2022/10/08 06:26:31;;;;;;;9.25;2.05;;;10.70;99.90;;;;;;5107723;28;20400;-74
2022/10/08 06:28:57;;;;;;;9.25;2.60;;;10.70;99.90;;;;;;5118227;27;20917;-74
2022/10/08 06:31:23;;;;;;;9.18;2.55;;;10.70;99.90;;;;;;5124420;27;20392;-74
2022/10/08 06:33:49;;;;;;;8.77;2.20;;;10.80;99.90;;;;;;5118533;27;20383;-73
2022/10/08 06:36:17;;;;;;;13.70;2.22;;;10.80;99.90;;;;;;5114074;27;20418;-73
2022/10/08 06:38:48;;;;;;;10.02;2.10;;;10.80;99.90;;;;;;5127509;27;20915;-74
2022/10/08 06:41:14;;;;;;;9.80;2.40;;;10.80;99.90;;;;;;5109653;28;20903;-73
2022/10/08 06:43:40;;;;;;;12.83;2.20;;;10.80;99.90;;;;;;5116197;27;20397;-74
2022/10/08 06:46:06;;;;;;;11.35;2.45;;;10.90;99.90;;;;;;5107957;28;20415;-74
2022/10/08 06:48:32;;;;;;;8.13;2.33;;;10.90;99.90;;;;;;5107005;28;20404;-73
2022/10/08 06:51:06;;;;;;;14.73;2.28;;;10.90;99.90;;;;;;5121203;28;20399;-73
2022/10/08 06:53:33;;;;;;;9.27;1.98;;;10.90;99.90;;;;;;5107614;28;20404;-73
2022/10/08 06:56:03;;;;;;;9.10;2.15;;;10.90;99.90;;;;;;5108914;28;20420;-74
2022/10/08 06:58:29;;;;;;;11.15;2.50;;;10.90;99.90;;;;;;5107985;28;20454;-74
2022/10/08 07:01:06;;;;;;;12.35;2.00;;;11.00;99.90;;;;;;5107735;28;20400;-73
2022/10/08 07:03:32;;;;;;;7.82;1.92;;;11.10;99.90;;;;;;5108925;27;20400;-73
2022/10/08 07:06:00;;;;;;;12.88;2.30;;;11.10;99.90;;;;;;5108786;28;20397;-73
2022/10/08 07:08:27;;;;;;;12.52;1.90;;;11.20;99.90;;;;;;5108159;28;20534;-73
2022/10/08 07:10:53;;;;;;;13.75;2.30;;;11.20;99.90;;;;;;5110721;27;20412;-73
2022/10/08 07:13:19;;;;;;;10.73;1.88;;;11.30;99.90;;;;;;5111622;27;20411;-73
2022/10/08 07:15:44;;;;;;;9.73;1.67;;;11.40;99.90;;;;;;5111453;27;20420;-73
2022/10/08 07:18:11;;;;;;;8.37;1.77;;;11.40;99.90;;;;;;5109126;28;20426;-74
2022/10/08 07:20:38;;;;;;;10.32;1.60;;;11.60;99.90;;;;;;5109270;28;20403;-74
2022/10/08 07:23:05;;;;;;;7.50;1.60;;;11.70;99.90;;;;;;5115419;27;20406;-74
2022/10/08 07:25:30;;;;;;;9.05;1.40;;;11.70;99.90;;;;;;5113140;27;20452;-74
2022/10/08 07:27:56;;;;;;;11.33;1.80;;;11.90;99.90;;;;;;5109871;28;20798;-74
2022/10/08 07:30:22;;;;;;;10.03;1.60;;;11.90;99.90;;;;;;5110072;28;20414;-74
2022/10/08 07:32:50;;;;;;;7.25;1.30;;;12.00;99.90;;;;;;5110537;28;20397;-75
2022/10/08 07:35:16;;;;;;;7.45;1.35;;;12.00;99.90;;;;;;5112804;27;20512;-74
2022/10/08 07:37:42;;;;;;;7.22;1.00;;;12.10;99.90;;;;;;5123719;27;20426;-74
2022/10/08 07:40:08;;;;;;;8.23;1.23;;;12.10;99.90;;;;;;5111376;28;20477;-74
2022/10/08 07:42:33;;;;;;;7.72;1.10;;;12.20;99.90;;;;;;5111275;28;20447;-74
2022/10/08 07:44:59;;;;;;;8.13;1.17;;;12.30;99.90;;;;;;5106113;28;20910;-74
2022/10/08 07:47:24;;;;;;;6.60;1.00;;;12.40;99.90;;;;;;5106667;28;20404;-74
2022/10/08 07:49:50;;;;;;;7.85;1.15;;;12.40;99.90;;;;;;5110498;28;20408;-73
2022/10/08 07:52:16;;;;;;;8.27;1.03;;;12.40;99.90;;;;;;5111041;28;20520;-74
2022/10/08 07:54:44;;;;;;;7.45;1.00;;;12.50;99.90;;;;;;5113868;27;20462;-74
2022/10/08 07:57:10;;;;;;;7.38;1.00;;;12.50;99.90;;;;;;5124103;27;20471;-74
2022/10/08 07:59:36;;;;;;;9.05;0.95;;;12.50;99.90;;;;;;5105338;28;20469;-74
2022/10/08 08:02:02;;;;;;;5.20;0.95;;;12.50;99.90;;;;;;5105388;28;20400;-74
2022/10/08 08:04:27;;;;;;;6.13;1.10;;;12.50;99.90;;;;;;5110212;28;20893;-74
2022/10/08 08:06:53;;;;;;;6.90;1.02;;;12.50;99.90;;;;;;5109445;28;20401;-74
2022/10/08 08:09:19;;;;;;;7.50;0.90;;;12.50;99.90;;;;;;5105009;28;20435;-73
2022/10/08 08:11:47;;;;;;;8.02;0.90;;;12.50;99.90;;;;;;5110194;28;20857;-73
2022/10/08 08:14:12;;;;;;;6.32;0.80;;;12.50;99.90;;;;;;5108854;27;20432;-74
2022/10/08 08:16:39;;;;;;;8.27;1.27;;;12.50;99.90;;;;;;5118164;27;20458;-73
2022/10/08 08:19:05;;;;;;;8.20;1.25;;;12.50;99.90;;;;;;5109444;27;20417;-73
2022/10/08 08:21:35;;;;;;;9.20;0.88;;;12.70;99.90;;;;;;5112998;27;20404;-74
2022/10/08 08:24:08;;;;;;;5.60;0.90;;;12.80;99.90;;;;;;5109873;28;20537;-73
2022/10/08 08:26:35;;;;;;;6.97;0.95;;;13.00;99.90;;;;;;5123532;27;20447;-74
2022/10/08 08:29:04;;;;;;;9.20;1.08;;;13.00;99.90;;;;;;5105837;28;20419;-74
2022/10/08 08:31:35;;;;;;;7.78;1.08;;;13.20;99.90;;;;;;5110648;27;20829;-74
2022/10/08 08:34:06;;;;;;;5.90;0.80;;;13.20;99.90;;;;;;5110759;28;20762;-74
2022/10/08 08:36:34;;;;;;;5.18;0.80;;;13.10;99.90;;;;;;5110730;27;20469;-73
2022/10/08 08:39:00;;;;;;;6.93;0.85;;;13.10;99.90;;;;;;5109666;27;20416;-74
2022/10/08 08:41:31;;;;;;;7.23;1.00;;;13.00;99.90;;;;;;5108328;27;20409;-74
2022/10/08 08:44:28;;;;;;;6.47;1.00;;;13.10;99.90;;;;;;5108296;27;20426;-74
2022/10/08 08:47:02;;;;;;;7.78;1.10;;;13.20;99.90;;;;;;5104462;28;20428;-74
2022/10/08 08:49:32;;;;;;;6.93;1.00;;;13.40;99.90;;;;;;5110174;27;20409;-74
2022/10/08 08:52:00;;;;;;;6.60;0.77;;;13.60;99.90;;;;;;5109728;28;20404;-74
2022/10/08 08:54:26;;;;;;;5.87;0.80;;;13.90;99.90;;;;;;5109397;28;20408;-74
2022/10/08 08:56:53;;;;;;;5.60;0.82;;;14.00;99.90;;;;;;5107404;28;20470;-74
2022/10/08 08:59:33;;;;;;;4.57;0.50;;;14.00;99.90;;;;;;5110873;27;20401;-74
2022/10/08 09:02:12;;;;;;;6.65;0.70;;;13.80;99.90;;;;;;5110070;27;20459;-74
2022/10/08 09:04:46;;;;;;;3.85;0.50;;;13.40;99.90;;;;;;5108026;28;20416;-75
2022/10/08 09:07:17;;;;;;;4.80;0.45;;;13.20;99.90;;;;;;5111659;27;20451;-74
2022/10/08 09:09:50;;;;;;;4.82;0.50;;;12.90;99.90;;;;;;5109862;27;20408;-74
2022/10/08 09:12:30;;;;;;;4.18;0.60;;;12.70;99.90;;;;;;5097153;28;20785;-75
2022/10/08 09:14:58;;;;;;;4.05;0.68;;;13.00;99.90;;;;;;5110712;27;20418;-75
2022/10/08 09:17:34;;;;;;;4.60;0.60;;;14.20;99.90;;;;;;5110535;27;20466;-75
2022/10/08 09:20:00;;;;;;;2.90;0.63;;;15.40;99.90;;;;;;5110368;27;20453;-75
2022/10/08 09:22:35;;;;;;;5.20;0.50;;;16.40;99.90;;;;;;5108875;27;20561;-76
2022/10/08 09:25:11;;;;;;;3.97;0.60;;;17.20;99.90;;;;;;5111225;27;20923;-75
2022/10/08 09:27:54;;;;;;;2.95;0.55;;;17.90;99.90;;;;;;5114299;28;20498;-75
2022/10/08 09:30:26;;;;;;;4.82;0.60;;;18.60;99.90;;;;;;5119048;28;20436;-75
2022/10/08 09:32:53;;;;;;;2.85;0.40;;;19.20;99.90;;;;;;5115395;27;20476;-75
2022/10/08 09:35:19;;;;;;;4.32;0.30;;;19.80;99.90;;;;;;5105962;28;20421;-76
2022/10/08 09:37:46;;;;;;;4.00;0.40;;;20.30;99.90;;;;;;5105944;27;20861;-75
2022/10/08 09:40:12;;;;;;;4.40;0.52;;;20.80;99.90;;;;;;5109265;27;20461;-74
2022/10/08 09:42:38;;;;;;;5.33;0.70;;;21.20;99.90;;;;;;5109438;27;20416;-73
2022/10/08 09:45:31;;;;;;;5.45;0.80;;;21.60;98.80;;;;;;5108970;27;20400;-74
2022/10/08 09:48:16;;;;;;;4.57;0.95;;;21.50;98.10;;;;;;5107259;28;20420;-74
2022/10/08 09:50:56;;;;;;;4.85;0.75;;;21.40;98.20;;;;;;5109571;27;20483;-74
2022/10/08 09:53:24;;;;;;;5.30;0.80;;;21.70;98.30;;;;;;5105678;27;20419;-75
2022/10/08 09:55:52;;;;;;;3.97;0.60;;;22.00;98.40;;;;;;5109173;27;20512;-75
2022/10/08 09:58:18;;;;;;;5.17;0.70;;;21.80;95.80;;;;;;5121461;27;20403;-74
2022/10/08 10:00:54;;;;;;;5.10;0.85;;;20.80;96.20;;;;;;5127965;27;20935;-74
2022/10/08 10:03:19;;;;;;;6.97;0.80;;;20.20;97.40;;;;;;5134093;27;20438;-74
2022/10/08 10:05:51;;;;;;;6.32;0.80;;;19.40;97.00;;;;;;5126031;27;20878;-74
2022/10/08 10:08:39;;;;;;;5.75;1.00;;;18.60;97.90;;;;;;5117148;27;20845;-74
2022/10/08 10:11:05;;;;;;;7.15;1.00;;;18.00;98.50;;;;;;5106964;28;20416;-74
2022/10/08 10:13:37;;;;;;;4.68;0.75;;;18.50;99.90;;;;;;5116569;27;20911;-74
2022/10/08 10:16:06;;;;;;;6.17;0.90;;;19.60;98.80;;;;;;5110042;27;20428;-74
2022/10/08 10:18:48;;;;;;;4.95;0.90;;;20.20;96.70;;;;;;5099126;27;20450;-75
2022/10/08 10:21:21;;;;;;;7.05;1.17;;;20.60;94.50;;;;;;5110019;27;20420;-74
2022/10/08 10:24:04;;;;;;;7.82;1.10;;;21.00;96.20;;;;;;5109984;28;20491;-74
2022/10/08 10:26:35;;;;;;;6.35;0.93;;;21.70;95.20;;;;;;5106767;28;21028;-74
2022/10/08 10:29:09;;;;;;;7.17;1.00;;;22.10;92.20;;;;;;5107738;28;20419;-74
2022/10/08 10:31:41;;;;;;;8.73;0.90;;;22.00;92.30;;;;;;5125656;27;20880;-74
2022/10/08 10:34:16;;;;;;;6.63;1.10;;;22.20;92.10;;;;;;5127473;27;20402;-74
2022/10/08 10:36:53;;;;;;;5.07;0.70;;;22.50;90.40;;;;;;5110206;28;20919;-74
2022/10/08 10:39:29;;;;;;;8.57;1.15;;;22.20;87.00;;;;;;5123005;27;20450;-74
2022/10/08 10:42:05;;;;;;;9.80;1.63;;;22.00;87.90;;;;;;5127359;27;20417;-74
2022/10/08 10:44:43;;;;;;;5.03;0.90;;;22.20;87.70;;;;;;5130824;27;20979;-74
2022/10/08 10:47:10;;;;;;;6.80;1.38;;;22.40;87.80;;;;;;5131436;27;20394;-74
2022/10/08 10:49:39;;;;;;;6.83;1.10;;;22.70;85.60;;;;;;5130412;27;20844;-72
2022/10/08 10:52:14;;;;;;;6.65;0.85;;;22.40;84.40;;;;;;5126240;27;20446;-71
2022/10/08 10:55:10;;;;;;;5.47;0.77;;;22.20;82.40;;;;;;5129764;27;20417;-71
2022/10/08 10:57:58;;;;;;;6.35;1.00;;;22.30;82.70;;;;;;5129158;27;20398;-72
2022/10/08 11:00:26;;;;;;;6.82;0.95;;;21.90;83.60;;;;;;5130108;27;20915;-74
2022/10/08 11:03:06;;;;;;;8.38;1.20;;;20.90;83.00;;;;;;5131553;27;20530;-74
2022/10/08 11:05:34;;;;;;;6.70;1.27;;;19.90;85.90;;;;;;5121797;27;20451;-74
2022/10/08 11:08:15;;;;;;;6.07;1.05;;;19.50;88.90;;;;;;5121885;27;20493;-74
2022/10/08 11:11:09;;;;;;;7.90;1.30;;;20.10;89.60;;;;;;5105118;27;20406;-74
2022/10/08 11:14:11;;;;;;;6.45;1.05;;;20.90;88.90;;;;;;5130989;27;20403;-74
2022/10/08 11:16:40;;;;;;;6.30;0.88;;;21.70;88.50;;;;;;5127166;27;20425;-74
2022/10/08 11:19:33;;;;;;;6.55;1.00;;;21.70;82.70;;;;;;5131730;27;20403;-74
2022/10/08 11:22:14;;;;;;;8.35;1.13;;;20.90;83.30;;;;;;5099123;27;20426;-74
2022/10/08 11:24:58;;;;;;;5.25;0.90;;;20.40;85.00;;;;;;5115131;27;20941;-74
2022/10/08 11:27:58;;;;;;;7.65;1.08;;;19.80;85.00;;;;;;5111235;28;20453;-74
2022/10/08 11:30:59;;;;;;;7.70;1.23;;;18.90;86.20;;;;;;5105995;28;20423;-74
2022/10/08 11:33:27;;;;;;;6.07;0.80;;;18.00;88.50;;;;;;5097328;28;20444;-74
2022/10/08 11:36:20;;;;;;;5.40;0.90;;;18.10;90.80;;;;;;5112763;27;20432;-74
2022/10/08 11:39:10;;;;;;;4.88;0.60;;;19.10;91.00;;;;;;5111042;27;20430;-75
2022/10/08 11:42:05;;;;;;;5.13;0.65;;;20.10;89.30;;;;;;5105522;28;20416;-74
2022/10/08 11:44:31;;;;;;;4.97;0.63;;;20.90;87.90;;;;;;5101630;28;20458;-72
2022/10/08 11:47:34;;;;;;;5.68;0.80;;;21.60;87.10;;;;;;5110478;28;20965;-72
2022/10/08 11:50:01;;;;;;;5.50;0.70;;;22.40;85.70;;;;;;5101062;28;20454;-72
2022/10/08 11:52:31;;;;;;;6.22;0.90;;;23.00;83.30;;;;;;5109454;27;20495;-72
2022/10/08 11:54:59;;;;;;;5.85;0.68;;;23.10;81.60;;;;;;5104003;28;20424;-74
2022/10/08 11:57:36;;;;;;;5.65;0.80;;;23.30;82.10;;;;;;5111017;28;20396;-72
2022/10/08 12:00:34;;;;;;;5.35;0.90;;;23.40;81.30;;;;;;5107419;28;20427;-72
2022/10/08 12:03:04;;;;;;;8.80;1.20;;;23.50;78.60;;;;;;5101171;28;20448;-72
2022/10/08 12:05:44;;;;;;;4.82;0.70;;;23.50;78.30;;;;;;5110990;28;20404;-71
2022/10/08 12:08:30;;;;;;;6.55;1.35;;;23.60;78.50;;;;;;5101020;28;20436;-73
2022/10/08 12:11:28;;;;;;;7.90;0.90;;;23.70;77.00;;;;;;5110371;28;20411;-73
2022/10/08 12:16:46;;;;;;;5.28;0.77;;;23.70;75.00;;;;;;5110466;27;20509;-73
2022/10/08 12:19:34;;;;;;;5.72;1.00;;;22.70;76.40;;;;;;5130667;27;20402;-73
2022/10/08 12:22:02;;;;;;;6.75;1.08;;;21.80;77.70;;;;;;5095817;28;20400;-74
2022/10/08 12:24:36;;;;;;;5.53;0.70;;;22.10;79.60;;;;;;5107222;27;20416;-73
2022/10/08 12:27:20;;;;;;;7.45;1.05;;;21.90;77.20;;;;;;5100343;27;20431;-73
2022/10/08 12:29:58;;;;;;;5.75;0.90;;;20.90;77.80;;;;;;5088843;28;20999;-73
2022/10/08 12:32:30;;;;;;;6.00;0.75;;;20.10;79.90;;;;;;5108402;27;20404;-73
2022/10/08 12:34:56;;;;;;;5.03;0.80;;;19.70;83.00;;;;;;5109669;27;20435;-73
2022/10/08 12:37:48;;;;;;;4.87;0.80;;;20.00;81.70;;;;;;5110029;27;20886;-73
2022/10/08 12:40:53;;;;;;;6.83;0.83;;;19.60;80.30;;;;;;5108027;27;20481;-73
2022/10/08 12:43:48;;;;;;;6.70;1.00;;;19.10;81.80;;;;;;5108909;27;20420;-74
2022/10/08 12:46:49;;;;;;;6.13;1.00;;;18.70;82.20;;;;;;5110844;27;20840;-73
2022/10/08 12:49:39;;;;;;;9.32;1.00;;;18.30;84.40;;;;;;5087570;28;20467;-73
2022/10/08 12:52:09;;;;;;;7.80;1.52;;;17.80;84.60;;;;;;5110353;27;20853;-73
2022/10/08 12:54:37;;;;;;;6.07;1.30;;;17.40;86.20;;;;;;5097837;27;20424;-73
2022/10/08 12:57:08;;;;;;;8.07;1.23;;;17.80;88.70;;;;;;5109074;27;21061;-73
2022/10/08 12:59:37;;;;;;;7.37;1.30;;;19.00;86.80;;;;;;5107131;27;20425;-73
2022/10/08 13:02:22;;;;;;;6.40;1.00;;;20.10;84.70;;;;;;5107937;27;20407;-74
2022/10/08 13:04:48;;;;;;;6.70;1.00;;;20.90;82.00;;;;;;5100065;27;20408;-74
2022/10/08 13:07:27;;;;;;;7.65;1.17;;;21.60;79.60;;;;;;5107174;28;20911;-73
2022/10/08 13:09:58;;;;;;;4.53;1.00;;;21.80;80.40;;;;;;5096044;28;20943;-73
2022/10/08 13:12:24;;;;;;;4.75;0.85;;;22.20;78.10;;;;;;5097058;28;20758;-74